sensor_id;sensor_type;location;lat;lon;timestamp;P1;durP1;ratioP1;P2;durP2;ratioP2
13708;SDS011;54933;51.908;7.730;2023-05-16T00:00:01;0.60;;;0.60;;
13708;SDS011;54933;51.908;7.730;2023-05-16T00:02:30;0.60;;;0.60;;
13708;SDS011;54933;51.908;7.730;2023-05-16T00:04:55;0.63;;;0.60;;
13708;SDS011;54933;51.908;7.730;2023-05-16T00:07:21;0.63;;;0.63;;
13708;SDS011;54933;51.908;7.730;2023-05-16T00:09:46;0.60;;;0.60;;
13708;SDS011;54933;51.908;7.730;2023-05-16T00:12:12;0.63;;;0.63;;
13708;SDS011;54933;51.908;7.730;2023-05-16T00:14:37;0.70;;;0.70;;
13708;SDS011;54933;51.908;7.730;2023-05-16T00:17:02;0.70;;;0.70;;
13708;SDS011;54933;51.908;7.730;2023-05-16T00:19:35;2.90;;;0.63;;
13708;SDS011;54933;51.908;7.730;2023-05-16T00:22:00;0.50;;;0.50;;
13708;SDS011;54933;51.908;7.730;2023-05-16T00:24:26;1.13;;;0.80;;
13708;SDS011;54933;51.908;7.730;2023-05-16T00:26:51;0.87;;;0.70;;
13708;SDS011;54933;51.908;7.730;2023-05-16T00:29:16;0.70;;;0.70;;
13708;SDS011;54933;51.908;7.730;2023-05-16T00:31:41;0.90;;;0.57;;
13708;SDS011;54933;51.908;7.730;2023-05-16T00:34:07;0.70;;;0.70;;
13708;SDS011;54933;51.908;7.730;2023-05-16T00:36:32;1.60;;;0.97;;
13708;SDS011;54933;51.908;7.730;2023-05-16T00:38:59;0.60;;;0.60;;
13708;SDS011;54933;51.908;7.730;2023-05-16T00:41:25;0.80;;;0.80;;
13708;SDS011;54933;51.908;7.730;2023-05-16T00:43:50;0.77;;;0.60;;
13708;SDS011;54933;51.908;7.730;2023-05-16T00:46:16;0.57;;;0.57;;
13708;SDS011;54933;51.908;7.730;2023-05-16T00:48:41;0.50;;;0.50;;
13708;SDS011;54933;51.908;7.730;2023-05-16T00:51:06;0.47;;;0.43;;
13708;SDS011;54933;51.908;7.730;2023-05-16T00:53:33;0.60;;;0.60;;
13708;SDS011;54933;51.908;7.730;2023-05-16T00:55:59;0.97;;;0.50;;
13708;SDS011;54933;51.908;7.730;2023-05-16T00:58:24;0.50;;;0.50;;
13708;SDS011;54933;51.908;7.730;2023-05-16T01:00:50;0.60;;;0.60;;
13708;SDS011;54933;51.908;7.730;2023-05-16T01:03:16;0.67;;;0.60;;
13708;SDS011;54933;51.908;7.730;2023-05-16T01:05:41;0.60;;;0.60;;
13708;SDS011;54933;51.908;7.730;2023-05-16T01:08:06;1.13;;;0.70;;
13708;SDS011;54933;51.908;7.730;2023-05-16T01:10:35;0.63;;;0.63;;
13708;SDS011;54933;51.908;7.730;2023-05-16T01:13:21;0.60;;;0.60;;
13708;SDS011;54933;51.908;7.730;2023-05-16T01:16:09;0.50;;;0.50;;
13708;SDS011;54933;51.908;7.730;2023-05-16T01:21:41;0.60;;;0.60;;
13708;SDS011;54933;51.908;7.730;2023-05-16T01:24:13;0.60;;;0.60;;
13708;SDS011;54933;51.908;7.730;2023-05-16T01:26:57;0.50;;;0.50;;
13708;SDS011;54933;51.908;7.730;2023-05-16T01:29:23;0.50;;;0.50;;
13708;SDS011;54933;51.908;7.730;2023-05-16T01:31:49;0.63;;;0.40;;
13708;SDS011;54933;51.908;7.730;2023-05-16T01:34:14;0.40;;;0.40;;
13708;SDS011;54933;51.908;7.730;2023-05-16T01:39:43;0.30;;;0.30;;
13708;SDS011;54933;51.908;7.730;2023-05-16T01:42:11;0.50;;;0.50;;
13708;SDS011;54933;51.908;7.730;2023-05-16T01:44:45;0.60;;;0.60;;
13708;SDS011;54933;51.908;7.730;2023-05-16T01:47:16;0.57;;;0.57;;
13708;SDS011;54933;51.908;7.730;2023-05-16T01:52:24;0.40;;;0.40;;
13708;SDS011;54933;51.908;7.730;2023-05-16T01:54:54;0.37;;;0.37;;
13708;SDS011;54933;51.908;7.730;2023-05-16T01:57:23;0.77;;;0.50;;
13708;SDS011;54933;51.908;7.730;2023-05-16T01:59:50;0.40;;;0.40;;
13708;SDS011;54933;51.908;7.730;2023-05-16T02:02:19;0.50;;;0.50;;
13708;SDS011;54933;51.908;7.730;2023-05-16T02:04:44;0.47;;;0.47;;
13708;SDS011;54933;51.908;7.730;2023-05-16T02:07:10;0.50;;;0.50;;
13708;SDS011;54933;51.908;7.730;2023-05-16T02:09:38;0.50;;;0.50;;
13708;SDS011;54933;51.908;7.730;2023-05-16T02:12:03;0.50;;;0.50;;
13708;SDS011;54933;51.908;7.730;2023-05-16T02:14:29;0.47;;;0.47;;
13708;SDS011;54933;51.908;7.730;2023-05-16T02:16:54;0.47;;;0.47;;
13708;SDS011;54933;51.908;7.730;2023-05-16T02:19:19;0.43;;;0.43;;
13708;SDS011;54933;51.908;7.730;2023-05-16T02:21:45;0.67;;;0.50;;
13708;SDS011;54933;51.908;7.730;2023-05-16T02:24:10;0.50;;;0.30;;
13708;SDS011;54933;51.908;7.730;2023-05-16T02:26:35;0.40;;;0.40;;
13708;SDS011;54933;51.908;7.730;2023-05-16T02:29:01;0.60;;;0.60;;
13708;SDS011;54933;51.908;7.730;2023-05-16T02:31:27;0.63;;;0.60;;
13708;SDS011;54933;51.908;7.730;2023-05-16T02:33:53;0.50;;;0.50;;
13708;SDS011;54933;51.908;7.730;2023-05-16T02:36:19;0.40;;;0.40;;
13708;SDS011;54933;51.908;7.730;2023-05-16T02:38:45;0.83;;;0.53;;
13708;SDS011;54933;51.908;7.730;2023-05-16T02:41:10;0.33;;;0.33;;
13708;SDS011;54933;51.908;7.730;2023-05-16T02:43:35;0.37;;;0.37;;
13708;SDS011;54933;51.908;7.730;2023-05-16T02:46:03;0.40;;;0.40;;
13708;SDS011;54933;51.908;7.730;2023-05-16T02:48:29;0.30;;;0.30;;
13708;SDS011;54933;51.908;7.730;2023-05-16T02:50:54;0.40;;;0.40;;
13708;SDS011;54933;51.908;7.730;2023-05-16T02:53:19;0.50;;;0.50;;
13708;SDS011;54933;51.908;7.730;2023-05-16T02:55:45;0.40;;;0.40;;
13708;SDS011;54933;51.908;7.730;2023-05-16T02:58:10;0.50;;;0.50;;
13708;SDS011;54933;51.908;7.730;2023-05-16T03:00:35;0.50;;;0.37;;
13708;SDS011;54933;51.908;7.730;2023-05-16T03:03:01;0.50;;;0.50;;
13708;SDS011;54933;51.908;7.730;2023-05-16T03:05:26;0.77;;;0.70;;
13708;SDS011;54933;51.908;7.730;2023-05-16T03:07:51;0.30;;;0.30;;
13708;SDS011;54933;51.908;7.730;2023-05-16T03:10:17;0.47;;;0.47;;
13708;SDS011;54933;51.908;7.730;2023-05-16T03:12:42;0.50;;;0.50;;
13708;SDS011;54933;51.908;7.730;2023-05-16T03:15:07;0.30;;;0.30;;
13708;SDS011;54933;51.908;7.730;2023-05-16T03:17:33;0.50;;;0.50;;
13708;SDS011;54933;51.908;7.730;2023-05-16T03:19:59;0.30;;;0.30;;
13708;SDS011;54933;51.908;7.730;2023-05-16T03:22:24;0.40;;;0.40;;
13708;SDS011;54933;51.908;7.730;2023-05-16T03:24:49;0.37;;;0.37;;
13708;SDS011;54933;51.908;7.730;2023-05-16T03:27:14;0.47;;;0.47;;
13708;SDS011;54933;51.908;7.730;2023-05-16T03:29:40;0.40;;;0.40;;
13708;SDS011;54933;51.908;7.730;2023-05-16T03:32:05;0.60;;;0.60;;
13708;SDS011;54933;51.908;7.730;2023-05-16T03:34:30;0.30;;;0.30;;
13708;SDS011;54933;51.908;7.730;2023-05-16T03:36:56;0.57;;;0.37;;
13708;SDS011;54933;51.908;7.730;2023-05-16T03:39:21;1.30;;;0.37;;
13708;SDS011;54933;51.908;7.730;2023-05-16T03:41:46;0.67;;;0.40;;
13708;SDS011;54933;51.908;7.730;2023-05-16T03:44:12;0.73;;;0.40;;
13708;SDS011;54933;51.908;7.730;2023-05-16T03:46:37;0.40;;;0.40;;
13708;SDS011;54933;51.908;7.730;2023-05-16T03:49:02;1.13;;;0.60;;
13708;SDS011;54933;51.908;7.730;2023-05-16T03:51:28;0.43;;;0.20;;
13708;SDS011;54933;51.908;7.730;2023-05-16T03:53:54;0.57;;;0.33;;
13708;SDS011;54933;51.908;7.730;2023-05-16T03:56:19;0.40;;;0.40;;
13708;SDS011;54933;51.908;7.730;2023-05-16T03:58:45;0.40;;;0.40;;
13708;SDS011;54933;51.908;7.730;2023-05-16T04:01:11;0.40;;;0.40;;
13708;SDS011;54933;51.908;7.730;2023-05-16T04:03:36;2.73;;;0.50;;
13708;SDS011;54933;51.908;7.730;2023-05-16T04:06:02;0.60;;;0.60;;
13708;SDS011;54933;51.908;7.730;2023-05-16T04:08:28;0.30;;;0.30;;
13708;SDS011;54933;51.908;7.730;2023-05-16T04:10:53;0.43;;;0.43;;
13708;SDS011;54933;51.908;7.730;2023-05-16T04:13:19;0.30;;;0.30;;
13708;SDS011;54933;51.908;7.730;2023-05-16T04:15:44;0.70;;;0.40;;
13708;SDS011;54933;51.908;7.730;2023-05-16T04:18:09;0.70;;;0.70;;
13708;SDS011;54933;51.908;7.730;2023-05-16T04:20:34;0.43;;;0.43;;
13708;SDS011;54933;51.908;7.730;2023-05-16T04:23:00;0.50;;;0.37;;
13708;SDS011;54933;51.908;7.730;2023-05-16T04:25:26;0.50;;;0.50;;
13708;SDS011;54933;51.908;7.730;2023-05-16T04:27:51;0.50;;;0.40;;
13708;SDS011;54933;51.908;7.730;2023-05-16T04:30:17;0.47;;;0.40;;
13708;SDS011;54933;51.908;7.730;2023-05-16T04:32:42;0.50;;;0.50;;
13708;SDS011;54933;51.908;7.730;2023-05-16T04:35:08;0.43;;;0.43;;
13708;SDS011;54933;51.908;7.730;2023-05-16T04:37:33;0.83;;;0.30;;
13708;SDS011;54933;51.908;7.730;2023-05-16T04:39:59;0.60;;;0.50;;
13708;SDS011;54933;51.908;7.730;2023-05-16T04:42:25;0.40;;;0.40;;
13708;SDS011;54933;51.908;7.730;2023-05-16T04:44:50;1.07;;;0.40;;
13708;SDS011;54933;51.908;7.730;2023-05-16T04:47:16;0.30;;;0.30;;
13708;SDS011;54933;51.908;7.730;2023-05-16T04:49:41;1.93;;;0.50;;
13708;SDS011;54933;51.908;7.730;2023-05-16T04:52:07;0.73;;;0.50;;
13708;SDS011;54933;51.908;7.730;2023-05-16T04:54:32;0.30;;;0.30;;
13708;SDS011;54933;51.908;7.730;2023-05-16T04:56:58;4.13;;;0.60;;
13708;SDS011;54933;51.908;7.730;2023-05-16T04:59:23;0.30;;;0.30;;
13708;SDS011;54933;51.908;7.730;2023-05-16T05:01:48;0.77;;;0.30;;
13708;SDS011;54933;51.908;7.730;2023-05-16T05:04:14;0.83;;;0.30;;
13708;SDS011;54933;51.908;7.730;2023-05-16T05:06:39;0.37;;;0.27;;
13708;SDS011;54933;51.908;7.730;2023-05-16T05:09:05;1.93;;;0.40;;
13708;SDS011;54933;51.908;7.730;2023-05-16T05:11:31;0.23;;;0.23;;
13708;SDS011;54933;51.908;7.730;2023-05-16T05:13:56;0.80;;;0.40;;
13708;SDS011;54933;51.908;7.730;2023-05-16T05:16:21;0.70;;;0.47;;
13708;SDS011;54933;51.908;7.730;2023-05-16T05:18:47;2.03;;;0.40;;
13708;SDS011;54933;51.908;7.730;2023-05-16T05:21:12;2.67;;;0.50;;
13708;SDS011;54933;51.908;7.730;2023-05-16T05:23:37;18.83;;;2.10;;
13708;SDS011;54933;51.908;7.730;2023-05-16T05:26:02;48.43;;;3.60;;
13708;SDS011;54933;51.908;7.730;2023-05-16T05:28:28;14.27;;;2.10;;
13708;SDS011;54933;51.908;7.730;2023-05-16T05:30:53;26.40;;;2.50;;
13708;SDS011;54933;51.908;7.730;2023-05-16T05:33:18;35.43;;;2.63;;
13708;SDS011;54933;51.908;7.730;2023-05-16T05:35:44;20.20;;;1.93;;
13708;SDS011;54933;51.908;7.730;2023-05-16T05:38:09;23.80;;;1.90;;
13708;SDS011;54933;51.908;7.730;2023-05-16T05:40:34;16.40;;;3.67;;
13708;SDS011;54933;51.908;7.730;2023-05-16T05:43:00;16.43;;;1.83;;
13708;SDS011;54933;51.908;7.730;2023-05-16T05:45:25;16.40;;;1.73;;
13708;SDS011;54933;51.908;7.730;2023-05-16T05:47:50;14.83;;;1.77;;
13708;SDS011;54933;51.908;7.730;2023-05-16T05:50:15;11.47;;;1.30;;
13708;SDS011;54933;51.908;7.730;2023-05-16T05:52:41;12.13;;;1.50;;
13708;SDS011;54933;51.908;7.730;2023-05-16T05:55:06;10.83;;;1.60;;
13708;SDS011;54933;51.908;7.730;2023-05-16T05:57:32;7.00;;;1.30;;
13708;SDS011;54933;51.908;7.730;2023-05-16T05:59:57;6.27;;;1.27;;
13708;SDS011;54933;51.908;7.730;2023-05-16T06:02:22;11.20;;;1.47;;
13708;SDS011;54933;51.908;7.730;2023-05-16T06:04:48;11.43;;;1.50;;
13708;SDS011;54933;51.908;7.730;2023-05-16T06:07:13;9.43;;;1.50;;
13708;SDS011;54933;51.908;7.730;2023-05-16T06:09:40;6.10;;;1.20;;
13708;SDS011;54933;51.908;7.730;2023-05-16T06:12:06;12.83;;;1.30;;
13708;SDS011;54933;51.908;7.730;2023-05-16T06:14:32;8.40;;;1.30;;
13708;SDS011;54933;51.908;7.730;2023-05-16T06:16:57;24.00;;;2.17;;
13708;SDS011;54933;51.908;7.730;2023-05-16T06:19:22;14.10;;;1.57;;
13708;SDS011;54933;51.908;7.730;2023-05-16T06:21:48;12.67;;;1.90;;
13708;SDS011;54933;51.908;7.730;2023-05-16T06:24:13;5.37;;;0.93;;
13708;SDS011;54933;51.908;7.730;2023-05-16T06:26:39;9.70;;;1.47;;
13708;SDS011;54933;51.908;7.730;2023-05-16T06:29:04;7.67;;;0.80;;
13708;SDS011;54933;51.908;7.730;2023-05-16T06:31:30;6.30;;;1.60;;
13708;SDS011;54933;51.908;7.730;2023-05-16T06:33:55;5.47;;;1.20;;
13708;SDS011;54933;51.908;7.730;2023-05-16T06:36:20;4.30;;;1.10;;
13708;SDS011;54933;51.908;7.730;2023-05-16T06:38:46;2.83;;;0.80;;
13708;SDS011;54933;51.908;7.730;2023-05-16T06:41:11;4.23;;;1.00;;
13708;SDS011;54933;51.908;7.730;2023-05-16T06:43:36;4.40;;;1.23;;
13708;SDS011;54933;51.908;7.730;2023-05-16T06:46:01;8.17;;;1.07;;
13708;SDS011;54933;51.908;7.730;2023-05-16T06:48:27;7.63;;;1.27;;
13708;SDS011;54933;51.908;7.730;2023-05-16T06:50:53;3.80;;;0.93;;
13708;SDS011;54933;51.908;7.730;2023-05-16T06:53:18;7.53;;;0.90;;
13708;SDS011;54933;51.908;7.730;2023-05-16T06:55:43;3.67;;;0.90;;
13708;SDS011;54933;51.908;7.730;2023-05-16T06:58:09;5.90;;;1.10;;
13708;SDS011;54933;51.908;7.730;2023-05-16T07:00:35;4.40;;;0.97;;
13708;SDS011;54933;51.908;7.730;2023-05-16T07:03:00;5.00;;;0.93;;
13708;SDS011;54933;51.908;7.730;2023-05-16T07:05:26;1.93;;;0.80;;
13708;SDS011;54933;51.908;7.730;2023-05-16T07:07:51;6.27;;;0.90;;
13708;SDS011;54933;51.908;7.730;2023-05-16T07:10:16;4.20;;;1.00;;
13708;SDS011;54933;51.908;7.730;2023-05-16T07:12:41;2.67;;;0.63;;
13708;SDS011;54933;51.908;7.730;2023-05-16T07:15:07;4.40;;;0.70;;
13708;SDS011;54933;51.908;7.730;2023-05-16T07:17:33;1.33;;;0.60;;
13708;SDS011;54933;51.908;7.730;2023-05-16T07:19:58;4.17;;;0.83;;
13708;SDS011;54933;51.908;7.730;2023-05-16T07:22:24;3.70;;;0.50;;
13708;SDS011;54933;51.908;7.730;2023-05-16T07:24:49;3.43;;;0.70;;
13708;SDS011;54933;51.908;7.730;2023-05-16T07:27:17;2.77;;;0.90;;
13708;SDS011;54933;51.908;7.730;2023-05-16T07:29:42;0.90;;;0.40;;
13708;SDS011;54933;51.908;7.730;2023-05-16T07:32:07;2.13;;;0.50;;
13708;SDS011;54933;51.908;7.730;2023-05-16T07:34:32;5.10;;;0.93;;
13708;SDS011;54933;51.908;7.730;2023-05-16T07:36:58;1.83;;;0.87;;
13708;SDS011;54933;51.908;7.730;2023-05-16T07:39:23;2.03;;;0.50;;
13708;SDS011;54933;51.908;7.730;2023-05-16T07:41:48;1.80;;;0.60;;
13708;SDS011;54933;51.908;7.730;2023-05-16T07:44:14;5.00;;;0.67;;
13708;SDS011;54933;51.908;7.730;2023-05-16T07:46:39;2.37;;;0.87;;
13708;SDS011;54933;51.908;7.730;2023-05-16T07:49:04;2.10;;;0.77;;
13708;SDS011;54933;51.908;7.730;2023-05-16T07:51:30;1.33;;;0.70;;
13708;SDS011;54933;51.908;7.730;2023-05-16T07:53:55;1.50;;;0.60;;
13708;SDS011;54933;51.908;7.730;2023-05-16T07:56:21;1.57;;;0.67;;
13708;SDS011;54933;51.908;7.730;2023-05-16T07:58:47;1.47;;;0.63;;
13708;SDS011;54933;51.908;7.730;2023-05-16T08:01:13;1.33;;;0.60;;
13708;SDS011;54933;51.908;7.730;2023-05-16T08:03:38;1.90;;;0.40;;
13708;SDS011;54933;51.908;7.730;2023-05-16T08:06:03;0.37;;;0.20;;
13708;SDS011;54933;51.908;7.730;2023-05-16T08:08:29;2.70;;;0.50;;
13708;SDS011;54933;51.908;7.730;2023-05-16T08:10:54;1.07;;;0.47;;
13708;SDS011;54933;51.908;7.730;2023-05-16T08:13:20;2.73;;;0.60;;
13708;SDS011;54933;51.908;7.730;2023-05-16T08:15:45;1.70;;;0.57;;
13708;SDS011;54933;51.908;7.730;2023-05-16T08:18:11;1.77;;;0.63;;
13708;SDS011;54933;51.908;7.730;2023-05-16T08:20:38;1.07;;;0.63;;
13708;SDS011;54933;51.908;7.730;2023-05-16T08:23:05;2.73;;;0.40;;
13708;SDS011;54933;51.908;7.730;2023-05-16T08:25:31;0.60;;;0.60;;
13708;SDS011;54933;51.908;7.730;2023-05-16T08:27:56;0.87;;;0.53;;
13708;SDS011;54933;51.908;7.730;2023-05-16T08:30:22;1.47;;;0.50;;
13708;SDS011;54933;51.908;7.730;2023-05-16T08:32:47;1.60;;;0.40;;
13708;SDS011;54933;51.908;7.730;2023-05-16T08:35:13;1.90;;;0.40;;
13708;SDS011;54933;51.908;7.730;2023-05-16T08:37:38;0.77;;;0.37;;
13708;SDS011;54933;51.908;7.730;2023-05-16T08:40:05;0.77;;;0.50;;
13708;SDS011;54933;51.908;7.730;2023-05-16T08:42:32;2.10;;;0.73;;
13708;SDS011;54933;51.908;7.730;2023-05-16T08:44:58;0.30;;;0.30;;
13708;SDS011;54933;51.908;7.730;2023-05-16T08:47:23;1.07;;;0.40;;
13708;SDS011;54933;51.908;7.730;2023-05-16T08:49:51;0.87;;;0.50;;
13708;SDS011;54933;51.908;7.730;2023-05-16T08:52:18;0.30;;;0.30;;
13708;SDS011;54933;51.908;7.730;2023-05-16T08:54:45;1.30;;;0.47;;
13708;SDS011;54933;51.908;7.730;2023-05-16T08:57:11;1.70;;;0.50;;
13708;SDS011;54933;51.908;7.730;2023-05-16T08:59:38;1.43;;;0.37;;
13708;SDS011;54933;51.908;7.730;2023-05-16T09:02:04;0.40;;;0.40;;
13708;SDS011;54933;51.908;7.730;2023-05-16T09:04:30;0.43;;;0.33;;
13708;SDS011;54933;51.908;7.730;2023-05-16T09:06:55;1.17;;;0.43;;
13708;SDS011;54933;51.908;7.730;2023-05-16T09:09:21;1.20;;;0.50;;
13708;SDS011;54933;51.908;7.730;2023-05-16T09:11:46;3.00;;;0.30;;
13708;SDS011;54933;51.908;7.730;2023-05-16T09:14:11;0.33;;;0.30;;
13708;SDS011;54933;51.908;7.730;2023-05-16T09:16:37;1.30;;;0.40;;
13708;SDS011;54933;51.908;7.730;2023-05-16T09:19:03;0.20;;;0.20;;
13708;SDS011;54933;51.908;7.730;2023-05-16T09:21:31;0.47;;;0.30;;
13708;SDS011;54933;51.908;7.730;2023-05-16T09:24:06;0.87;;;0.30;;
13708;SDS011;54933;51.908;7.730;2023-05-16T09:26:34;1.00;;;0.43;;
13708;SDS011;54933;51.908;7.730;2023-05-16T09:29:01;2.00;;;0.40;;
13708;SDS011;54933;51.908;7.730;2023-05-16T09:31:27;0.40;;;0.40;;
13708;SDS011;54933;51.908;7.730;2023-05-16T09:34:02;16.80;;;1.30;;
13708;SDS011;54933;51.908;7.730;2023-05-16T09:36:31;13.63;;;0.83;;
13708;SDS011;54933;51.908;7.730;2023-05-16T09:38:56;14.30;;;1.10;;
13708;SDS011;54933;51.908;7.730;2023-05-16T09:41:22;7.73;;;1.00;;
13708;SDS011;54933;51.908;7.730;2023-05-16T09:43:47;1.10;;;0.53;;
13708;SDS011;54933;51.908;7.730;2023-05-16T09:46:13;5.53;;;0.73;;
13708;SDS011;54933;51.908;7.730;2023-05-16T09:48:45;4.37;;;1.00;;
13708;SDS011;54933;51.908;7.730;2023-05-16T09:51:12;2.23;;;0.40;;
13708;SDS011;54933;51.908;7.730;2023-05-16T09:53:38;1.13;;;0.60;;
13708;SDS011;54933;51.908;7.730;2023-05-16T09:56:05;7.47;;;0.60;;
13708;SDS011;54933;51.908;7.730;2023-05-16T09:58:33;1.50;;;0.43;;
13708;SDS011;54933;51.908;7.730;2023-05-16T10:00:59;2.93;;;0.80;;
13708;SDS011;54933;51.908;7.730;2023-05-16T10:03:26;5.90;;;0.50;;
13708;SDS011;54933;51.908;7.730;2023-05-16T10:05:52;1.67;;;0.50;;
13708;SDS011;54933;51.908;7.730;2023-05-16T10:08:23;5.23;;;0.33;;
13708;SDS011;54933;51.908;7.730;2023-05-16T10:10:50;5.50;;;0.60;;
13708;SDS011;54933;51.908;7.730;2023-05-16T10:13:21;1.80;;;0.43;;
13708;SDS011;54933;51.908;7.730;2023-05-16T10:15:54;0.70;;;0.33;;
13708;SDS011;54933;51.908;7.730;2023-05-16T10:18:21;4.67;;;0.57;;
13708;SDS011;54933;51.908;7.730;2023-05-16T10:20:52;4.33;;;0.40;;
13708;SDS011;54933;51.908;7.730;2023-05-16T10:23:19;2.90;;;0.40;;
13708;SDS011;54933;51.908;7.730;2023-05-16T10:25:46;2.17;;;0.63;;
13708;SDS011;54933;51.908;7.730;2023-05-16T10:28:14;1.00;;;0.60;;
13708;SDS011;54933;51.908;7.730;2023-05-16T10:30:41;0.30;;;0.20;;
13708;SDS011;54933;51.908;7.730;2023-05-16T10:33:08;0.83;;;0.30;;
13708;SDS011;54933;51.908;7.730;2023-05-16T10:35:36;3.17;;;0.30;;
13708;SDS011;54933;51.908;7.730;2023-05-16T10:38:02;1.53;;;0.40;;
13708;SDS011;54933;51.908;7.730;2023-05-16T10:40:28;2.33;;;0.50;;
13708;SDS011;54933;51.908;7.730;2023-05-16T10:42:55;1.00;;;0.40;;
13708;SDS011;54933;51.908;7.730;2023-05-16T10:45:22;1.20;;;0.37;;
13708;SDS011;54933;51.908;7.730;2023-05-16T10:47:57;0.60;;;0.30;;
13708;SDS011;54933;51.908;7.730;2023-05-16T10:55:39;0.67;;;0.30;;
13708;SDS011;54933;51.908;7.730;2023-05-16T10:58:04;1.47;;;0.27;;
13708;SDS011;54933;51.908;7.730;2023-05-16T11:00:30;1.50;;;0.37;;
13708;SDS011;54933;51.908;7.730;2023-05-16T11:03:04;1.30;;;0.40;;
13708;SDS011;54933;51.908;7.730;2023-05-16T11:05:30;2.77;;;0.30;;
13708;SDS011;54933;51.908;7.730;2023-05-16T11:08:02;0.30;;;0.30;;
13708;SDS011;54933;51.908;7.730;2023-05-16T11:10:30;0.60;;;0.20;;
13708;SDS011;54933;51.908;7.730;2023-05-16T11:12:55;0.53;;;0.30;;
13708;SDS011;54933;51.908;7.730;2023-05-16T11:15:31;0.77;;;0.30;;
13708;SDS011;54933;51.908;7.730;2023-05-16T11:18:06;0.80;;;0.37;;
13708;SDS011;54933;51.908;7.730;2023-05-16T11:20:34;0.30;;;0.20;;
13708;SDS011;54933;51.908;7.730;2023-05-16T11:25:51;0.10;;;0.10;;
13708;SDS011;54933;51.908;7.730;2023-05-16T11:28:21;2.23;;;0.40;;
13708;SDS011;54933;51.908;7.730;2023-05-16T11:30:49;0.50;;;0.30;;
13708;SDS011;54933;51.908;7.730;2023-05-16T11:33:20;0.23;;;0.20;;
13708;SDS011;54933;51.908;7.730;2023-05-16T11:36:04;0.93;;;0.20;;
13708;SDS011;54933;51.908;7.730;2023-05-16T11:38:32;2.07;;;0.50;;
13708;SDS011;54933;51.908;7.730;2023-05-16T11:41:05;1.07;;;0.40;;
13708;SDS011;54933;51.908;7.730;2023-05-16T11:46:11;0.40;;;0.30;;
13708;SDS011;54933;51.908;7.730;2023-05-16T11:48:37;1.80;;;0.37;;
13708;SDS011;54933;51.908;7.730;2023-05-16T11:51:02;1.20;;;0.30;;
13708;SDS011;54933;51.908;7.730;2023-05-16T11:53:28;0.20;;;0.20;;
13708;SDS011;54933;51.908;7.730;2023-05-16T11:55:53;0.50;;;0.50;;
13708;SDS011;54933;51.908;7.730;2023-05-16T11:58:19;0.80;;;0.30;;
13708;SDS011;54933;51.908;7.730;2023-05-16T12:00:48;0.67;;;0.40;;
13708;SDS011;54933;51.908;7.730;2023-05-16T12:03:15;0.40;;;0.40;;
13708;SDS011;54933;51.908;7.730;2023-05-16T12:05:48;2.87;;;0.90;;
13708;SDS011;54933;51.908;7.730;2023-05-16T12:08:18;3.07;;;1.63;;
13708;SDS011;54933;51.908;7.730;2023-05-16T12:10:48;2.37;;;1.90;;
13708;SDS011;54933;51.908;7.730;2023-05-16T12:13:14;4.67;;;2.40;;
13708;SDS011;54933;51.908;7.730;2023-05-16T12:15:40;6.33;;;2.83;;
13708;SDS011;54933;51.908;7.730;2023-05-16T12:18:06;7.87;;;3.50;;
13708;SDS011;54933;51.908;7.730;2023-05-16T12:20:33;7.07;;;3.60;;
13708;SDS011;54933;51.908;7.730;2023-05-16T12:22:58;6.07;;;3.90;;
13708;SDS011;54933;51.908;7.730;2023-05-16T12:25:33;6.73;;;4.63;;
13708;SDS011;54933;51.908;7.730;2023-05-16T12:28:05;6.23;;;4.10;;
13708;SDS011;54933;51.908;7.730;2023-05-16T12:30:32;8.93;;;4.17;;
13708;SDS011;54933;51.908;7.730;2023-05-16T12:32:58;9.50;;;4.47;;
13708;SDS011;54933;51.908;7.730;2023-05-16T12:35:29;10.17;;;5.03;;
13708;SDS011;54933;51.908;7.730;2023-05-16T12:37:57;10.10;;;4.83;;
13708;SDS011;54933;51.908;7.730;2023-05-16T12:40:22;11.03;;;5.63;;
13708;SDS011;54933;51.908;7.730;2023-05-16T12:42:54;3.43;;;1.50;;
13708;SDS011;54933;51.908;7.730;2023-05-16T12:45:23;6.20;;;2.07;;
13708;SDS011;54933;51.908;7.730;2023-05-16T12:47:48;4.00;;;2.50;;
13708;SDS011;54933;51.908;7.730;2023-05-16T12:50:15;5.50;;;3.53;;
13708;SDS011;54933;51.908;7.730;2023-05-16T12:52:51;9.43;;;3.60;;
13708;SDS011;54933;51.908;7.730;2023-05-16T12:55:18;6.80;;;3.83;;
13708;SDS011;54933;51.908;7.730;2023-05-16T12:57:45;6.10;;;3.70;;
13708;SDS011;54933;51.908;7.730;2023-05-16T13:00:14;6.53;;;4.00;;
13708;SDS011;54933;51.908;7.730;2023-05-16T13:02:43;7.53;;;4.33;;
13708;SDS011;54933;51.908;7.730;2023-05-16T13:05:08;8.97;;;4.30;;
13708;SDS011;54933;51.908;7.730;2023-05-16T13:07:34;7.73;;;4.80;;
13708;SDS011;54933;51.908;7.730;2023-05-16T13:10:00;9.07;;;4.33;;
13708;SDS011;54933;51.908;7.730;2023-05-16T13:12:26;9.57;;;4.20;;
13708;SDS011;54933;51.908;7.730;2023-05-16T13:14:51;8.23;;;4.20;;
13708;SDS011;54933;51.908;7.730;2023-05-16T13:17:17;7.30;;;4.50;;
13708;SDS011;54933;51.908;7.730;2023-05-16T13:19:43;7.43;;;4.43;;
13708;SDS011;54933;51.908;7.730;2023-05-16T13:22:08;11.70;;;4.37;;
13708;SDS011;54933;51.908;7.730;2023-05-16T13:24:33;8.30;;;4.27;;
13708;SDS011;54933;51.908;7.730;2023-05-16T13:26:59;6.43;;;4.10;;
13708;SDS011;54933;51.908;7.730;2023-05-16T13:29:24;8.03;;;4.73;;
13708;SDS011;54933;51.908;7.730;2023-05-16T13:31:49;9.80;;;4.63;;
13708;SDS011;54933;51.908;7.730;2023-05-16T13:34:15;9.83;;;4.97;;
13708;SDS011;54933;51.908;7.730;2023-05-16T13:36:40;8.70;;;4.43;;
13708;SDS011;54933;51.908;7.730;2023-05-16T13:39:06;5.30;;;3.97;;
13708;SDS011;54933;51.908;7.730;2023-05-16T13:41:31;7.40;;;4.40;;
13708;SDS011;54933;51.908;7.730;2023-05-16T13:44:01;7.13;;;4.47;;
13708;SDS011;54933;51.908;7.730;2023-05-16T13:46:26;7.00;;;4.07;;
13708;SDS011;54933;51.908;7.730;2023-05-16T13:48:52;5.67;;;3.53;;
13708;SDS011;54933;51.908;7.730;2023-05-16T13:51:17;7.40;;;4.43;;
13708;SDS011;54933;51.908;7.730;2023-05-16T13:53:42;27.97;;;3.37;;
13708;SDS011;54933;51.908;7.730;2023-05-16T13:56:07;17.17;;;3.77;;
13708;SDS011;54933;51.908;7.730;2023-05-16T13:58:33;9.60;;;3.80;;
13708;SDS011;54933;51.908;7.730;2023-05-16T14:00:58;8.23;;;3.43;;
13708;SDS011;54933;51.908;7.730;2023-05-16T14:03:23;9.87;;;3.73;;
13708;SDS011;54933;51.908;7.730;2023-05-16T14:05:48;5.33;;;3.47;;
13708;SDS011;54933;51.908;7.730;2023-05-16T14:08:14;13.20;;;3.97;;
13708;SDS011;54933;51.908;7.730;2023-05-16T14:10:39;6.70;;;3.27;;
13708;SDS011;54933;51.908;7.730;2023-05-16T14:13:04;8.13;;;3.40;;
13708;SDS011;54933;51.908;7.730;2023-05-16T14:15:30;7.43;;;3.10;;
13708;SDS011;54933;51.908;7.730;2023-05-16T14:17:55;6.53;;;3.20;;
13708;SDS011;54933;51.908;7.730;2023-05-16T14:20:21;11.40;;;4.93;;
13708;SDS011;54933;51.908;7.730;2023-05-16T14:22:46;5.30;;;2.90;;
13708;SDS011;54933;51.908;7.730;2023-05-16T14:25:12;6.17;;;3.20;;
13708;SDS011;54933;51.908;7.730;2023-05-16T14:27:37;6.37;;;3.03;;
13708;SDS011;54933;51.908;7.730;2023-05-16T14:30:02;9.63;;;2.90;;
13708;SDS011;54933;51.908;7.730;2023-05-16T14:32:28;9.13;;;2.70;;
13708;SDS011;54933;51.908;7.730;2023-05-16T14:34:53;10.40;;;2.93;;
13708;SDS011;54933;51.908;7.730;2023-05-16T14:37:19;6.77;;;2.50;;
13708;SDS011;54933;51.908;7.730;2023-05-16T14:39:46;5.90;;;1.20;;
13708;SDS011;54933;51.908;7.730;2023-05-16T14:42:13;15.30;;;2.57;;
13708;SDS011;54933;51.908;7.730;2023-05-16T14:44:38;8.17;;;1.70;;
13708;SDS011;54933;51.908;7.730;2023-05-16T14:47:04;6.17;;;1.70;;
13708;SDS011;54933;51.908;7.730;2023-05-16T14:49:30;9.63;;;1.80;;
13708;SDS011;54933;51.908;7.730;2023-05-16T14:51:56;6.93;;;1.70;;
13708;SDS011;54933;51.908;7.730;2023-05-16T14:54:21;10.90;;;1.50;;
13708;SDS011;54933;51.908;7.730;2023-05-16T14:56:46;14.20;;;1.80;;
13708;SDS011;54933;51.908;7.730;2023-05-16T14:59:12;4.43;;;1.63;;